Terminal Aerodrome Forecast
Issued by NWS

Home | Current Version | Previous Version | Text Only | Print | Product List | Glossary On
Versions: 1 2 3 4 5 6 7 8 9 10 11 12 13 14
000
FTUS45 KRIW 251100
TAFCOD
TAF
KCOD 251121Z 2512/2612 01010KT P6SM VCSH BKN020
     FM251500 02010KT P6SM SCT025 BKN050
     FM252200 02011KT P6SM VCSH SCT060 BKN120
     FM260300 34007KT P6SM VCSH SCT035 BKN070
      AMD LTD TO CLD VIS AND WIND=

USA.gov is the U.S. government's official web portal to all federal, state and local government web resources and services.